Terminal Aerodrome Forecast
Issued by NWS Sioux Falls, SD

Home | Current Version | Previous Version | Graphics & Text | Print | Product List | Glossary Off
Versions: 1 2 3 4 5 6 7 8 9 10 11 12 13 14 15 16 17 18 19 20 21 22 23 24 25 26 27 28 29 30 31 32 33 34 35 36 37

000
FTUS43 KFSD 221735
TAFSUX
TAF
KSUX 221735Z 2218/2318 20009KT P6SM OVC006
     FM221900 21010KT P6SM SCT009
     FM230300 15007KT P6SM SCT100
     FM230600 12006KT 3SM BR OVC006
     FM231500 33012KT P6SM BKN025
     FM231700 32014KT P6SM BKN035=

USA.gov is the U.S. government's official web portal to all federal, state and local government web resources and services.